Página principal
METAR-TAF:

METAR-TAF

Aeroportos :

Stewart, Colúmbia Britânica, Canadá

latitude: 55-56N, longitude: 129-59W, altura: 7 m

Observação actual do tempo

O boletim foi feito há 11 horas e 4 minutos, às 01:00 UTC
Vento 5 kt de sul, variando entre su-sudeste e oes-sudoeste
Temperatura 20°C
Humidade 64%
Pressão 1003 hPa
Visibilidade: 24.1 km
Nuvens fragmentadasa uma altura de 8500 ft
Nuvens fragmentadasa uma altura de 20000 ft

METAR: CZST 230100Z 19005KT 160V250 15SM BKN085 BKN200 20/13 A2962 RMK AC5CS1 LAST STFD OBS/NEXT 231500Z/ SLP034 DENSITY ALT 1000FT

Hora: 05:04 (12:04 UTC)


TAF: em falta

Observações e previsões do tempo de mais de 4000 aeroportos (mensagens METAR e TAF).

As estações disponíveis são os pontos amarelos e vermelhos sobre o mapa.

Mova o rato sobre o mapa para ver o nome da estação.

Depois clique no ponto para visualizar as observações e previsões meteorológicas.

Para alterar o mapa : clique nos botões verdes com uma cruz preta para aumentar o zoom; no botão verde com uma pitada de zoom; ou nas setas verdes para mapas adjacentes.


METAR-TAF: